Terminal Aerodrome Forecast
Issued by NWS Cleveland, OH

Home | Current Version | Previous Version | Graphics & Text | Print | Product List | Glossary On
Versions: 1 2 3 4 5 6 7 8 9 10 11 12 13 14 15 16 17 18 19
000
FTUS41 KCLE 011124
TAFTOL
TAF
KTOL 011124Z 0112/0212 00000KT 3SM BR SKC
      TEMPO 0112/0113 00000KT 1SM BR
     FM011500 24007KT P6SM SCT040
     FM011800 23007KT P6SM SCT040 BKN250
     FM020000 VRB03KT P6SM BKN250
     FM020800 VRB03KT 2SM BR BKN250=

USA.gov is the U.S. government's official web portal to all federal, state and local government web resources and services.